createdAt,value
2023-03-11T00:00:00.469Z,10.70
2023-03-11T00:02:30.886Z,10.67
2023-03-11T00:05:01.458Z,10.63
2023-03-11T00:07:31.983Z,10.63
2023-03-11T00:10:03.226Z,10.61
2023-03-11T00:12:33.846Z,10.60
2023-03-11T00:15:04.775Z,10.60
2023-03-11T00:17:35.222Z,10.64
2023-03-11T00:20:06.983Z,10.67
2023-03-11T00:22:37.443Z,10.71
2023-03-11T00:25:08.816Z,10.74
2023-03-11T00:27:39.694Z,10.75
2023-03-11T00:30:12.911Z,10.73
2023-03-11T00:32:43.478Z,10.70
2023-03-11T00:35:16.910Z,10.70
2023-03-11T00:37:49.549Z,10.68
2023-03-11T00:40:21.886Z,10.64
2023-03-11T00:42:53.009Z,10.61
2023-03-11T00:45:23.959Z,10.57
2023-03-11T00:47:55.447Z,10.54
2023-03-11T00:50:28.817Z,10.51
2023-03-11T00:53:00.979Z,10.49
2023-03-11T00:55:33.438Z,10.46
2023-03-11T00:58:08.375Z,10.40
2023-03-11T01:00:45.052Z,10.32
2023-03-11T01:03:15.782Z,10.25
2023-03-11T01:05:48.449Z,10.19
2023-03-11T01:08:18.976Z,10.11
2023-03-11T01:10:49.514Z,10.04
2023-03-11T01:13:20.258Z,10.01
2023-03-11T01:15:50.899Z,9.97
2023-03-11T01:18:21.927Z,9.97
2023-03-11T01:20:52.449Z,9.98
2023-03-11T01:23:23.907Z,9.98
2023-03-11T01:25:54.357Z,9.90
2023-03-11T01:28:24.794Z,9.89
2023-03-11T01:30:55.250Z,9.89
2023-03-11T01:33:25.720Z,9.91
2023-03-11T01:35:56.565Z,9.94
2023-03-11T01:38:30.380Z,9.95
2023-03-11T01:41:00.822Z,9.96
2023-03-11T01:43:48.867Z,9.95
2023-03-11T01:46:24.230Z,9.93
2023-03-11T01:48:56.747Z,9.89
2023-03-11T01:51:33.214Z,9.85
2023-03-11T01:54:08.096Z,9.83
2023-03-11T01:56:40.430Z,9.80
2023-03-11T01:59:13.459Z,9.77
2023-03-11T02:01:51.028Z,9.75
2023-03-11T02:04:22.723Z,9.73
2023-03-11T02:06:54.236Z,9.69
2023-03-11T02:09:27.121Z,9.67
2023-03-11T02:12:50.695Z,9.66
2023-03-11T02:16:16.500Z,9.65
2023-03-11T02:18:47.596Z,9.62
2023-03-11T02:21:26.469Z,9.60
2023-03-11T02:24:06.798Z,9.55
2023-03-11T02:26:42.604Z,9.51
2023-03-11T02:29:14.246Z,9.50
2023-03-11T02:31:46.986Z,9.55
2023-03-11T02:34:24.525Z,9.59
2023-03-11T02:36:55.346Z,9.64
2023-03-11T02:39:34.060Z,9.69
2023-03-11T02:42:08.271Z,9.71
2023-03-11T02:44:40.705Z,9.72
2023-03-11T02:47:11.526Z,9.73
2023-03-11T02:49:42.596Z,9.73
2023-03-11T02:52:13.063Z,9.73
2023-03-11T02:54:43.689Z,9.72
2023-03-11T02:57:14.171Z,9.69
2023-03-11T02:59:44.817Z,9.67
2023-03-11T03:02:15.588Z,9.66
2023-03-11T03:04:46.357Z,9.65
2023-03-11T03:07:17.370Z,9.60
2023-03-11T03:09:47.862Z,9.41
2023-03-11T03:12:18.313Z,9.20
2023-03-11T03:14:48.942Z,8.99
2023-03-11T03:17:20.423Z,8.78
2023-03-11T03:19:51.330Z,8.47
2023-03-11T03:22:22.199Z,8.15
2023-03-11T03:24:53.114Z,7.92
2023-03-11T03:27:23.942Z,7.73
2023-03-11T03:29:55.063Z,7.56
2023-03-11T03:32:25.880Z,7.48
2023-03-11T03:34:59.136Z,7.40
2023-03-11T03:37:38.885Z,7.29
2023-03-11T03:40:12.361Z,7.16
2023-03-11T03:42:43.303Z,7.03
2023-03-11T03:45:15.122Z,6.93
2023-03-11T03:47:45.812Z,6.85
2023-03-11T03:50:16.713Z,6.71
2023-03-11T03:52:48.911Z,6.52
2023-03-11T03:55:20.215Z,6.37
2023-03-11T03:57:51.303Z,6.22
2023-03-11T04:00:23.931Z,6.14
2023-03-11T04:02:57.898Z,6.12
2023-03-11T04:05:34.539Z,6.10
2023-03-11T04:08:30.728Z,6.02
2023-03-11T04:11:01.507Z,5.91
2023-03-11T04:13:33.648Z,5.84
2023-03-11T04:16:05.885Z,5.78
2023-03-11T04:18:35.325Z,5.64
2023-03-11T04:21:09.525Z,5.50
2023-03-11T04:23:40.652Z,5.39
2023-03-11T04:26:11.535Z,5.30
2023-03-11T04:28:42.530Z,5.23
2023-03-11T04:31:13.369Z,5.19
2023-03-11T04:33:44.644Z,5.16
2023-03-11T04:36:15.638Z,5.09
2023-03-11T04:38:46.877Z,5.00
2023-03-11T04:41:17.619Z,4.94
2023-03-11T04:43:48.536Z,4.90
2023-03-11T04:46:19.372Z,4.88
2023-03-11T04:48:50.040Z,4.84
2023-03-11T04:51:21.387Z,4.79
2023-03-11T04:53:52.022Z,4.76
2023-03-11T04:56:23.008Z,4.77
2023-03-11T04:58:53.955Z,4.78
2023-03-11T05:01:25.069Z,4.72
2023-03-11T05:03:55.768Z,4.69
2023-03-11T05:06:26.308Z,4.63
2023-03-11T05:08:57.277Z,4.58
2023-03-11T05:11:28.261Z,4.56
2023-03-11T05:13:58.856Z,4.53
2023-03-11T05:16:30.109Z,4.49
2023-03-11T05:19:00.861Z,4.40
2023-03-11T05:21:31.272Z,4.37
2023-03-11T05:24:01.823Z,4.34
2023-03-11T05:26:32.233Z,4.32
2023-03-11T05:29:03.226Z,4.27
2023-03-11T05:31:33.860Z,4.25
2023-03-11T05:34:05.050Z,4.24
2023-03-11T05:36:35.588Z,4.23
2023-03-11T05:39:06.777Z,4.22
2023-03-11T05:41:37.829Z,4.27
2023-03-11T05:44:14.788Z,4.31
2023-03-11T05:46:45.812Z,4.37
2023-03-11T05:49:16.379Z,4.44
2023-03-11T05:51:46.804Z,4.46
2023-03-11T05:54:17.749Z,4.43
2023-03-11T05:56:50.566Z,4.42
2023-03-11T05:59:21.533Z,4.41
2023-03-11T06:01:57.138Z,4.38
2023-03-11T06:04:27.819Z,4.33
2023-03-11T06:06:58.539Z,4.28
2023-03-11T06:09:31.424Z,4.23
2023-03-11T06:12:02.414Z,4.20
2023-03-11T06:14:38.777Z,4.15
2023-03-11T06:17:09.616Z,4.08
2023-03-11T06:19:40.140Z,4.01
2023-03-11T06:22:12.329Z,3.95
2023-03-11T06:24:42.944Z,3.92
2023-03-11T06:27:13.803Z,3.92
2023-03-11T06:29:44.659Z,3.91
2023-03-11T06:32:15.548Z,3.91
2023-03-11T06:34:46.107Z,3.89
2023-03-11T06:37:16.586Z,3.86
2023-03-11T06:39:47.043Z,3.83
2023-03-11T06:42:20.276Z,3.78
2023-03-11T06:44:51.497Z,3.74
2023-03-11T06:47:22.123Z,3.68
2023-03-11T06:49:54.845Z,3.64
2023-03-11T06:52:23.786Z,3.57
2023-03-11T06:54:54.361Z,3.40
2023-03-11T06:57:24.882Z,3.25
2023-03-11T06:59:56.049Z,3.20
2023-03-11T07:02:26.718Z,3.18
2023-03-11T07:04:57.398Z,3.19
2023-03-11T07:07:27.812Z,3.12
2023-03-11T07:09:59.235Z,3.03
2023-03-11T07:12:29.974Z,2.95
2023-03-11T07:15:01.436Z,2.88
2023-03-11T07:17:33.474Z,2.83
2023-03-11T07:20:04.384Z,2.83
2023-03-11T07:22:34.833Z,2.86
2023-03-11T07:25:06.001Z,2.91
2023-03-11T07:27:36.427Z,2.89
2023-03-11T07:30:08.482Z,2.76
2023-03-11T07:32:39.038Z,2.71
2023-03-11T07:35:11.900Z,2.62
2023-03-11T07:37:42.276Z,2.45
2023-03-11T07:40:15.027Z,2.44
2023-03-11T07:42:45.456Z,2.41
2023-03-11T07:45:16.377Z,2.33
2023-03-11T07:47:46.940Z,2.23
2023-03-11T07:50:18.258Z,2.12
2023-03-11T07:52:48.884Z,2.05
2023-03-11T07:55:19.953Z,2.00
2023-03-11T07:57:51.778Z,1.94
2023-03-11T08:00:23.675Z,1.88
2023-03-11T08:02:54.515Z,1.82
2023-03-11T08:05:25.184Z,1.81
2023-03-11T08:07:55.653Z,1.78
2023-03-11T08:10:26.188Z,1.80
2023-03-11T08:12:56.608Z,1.83
2023-03-11T08:15:27.144Z,1.87
2023-03-11T08:17:57.625Z,1.85
2023-03-11T08:20:28.065Z,1.81
2023-03-11T08:22:58.703Z,1.79
2023-03-11T08:25:29.722Z,1.85
2023-03-11T08:28:00.176Z,1.92
2023-03-11T08:30:31.398Z,1.96
2023-03-11T08:33:01.920Z,1.97
2023-03-11T08:35:32.760Z,1.95
2023-03-11T08:38:03.380Z,1.90
2023-03-11T08:40:34.019Z,1.88
2023-03-11T08:43:04.492Z,1.88
2023-03-11T08:45:35.257Z,1.91
2023-03-11T08:48:05.942Z,1.94
2023-03-11T08:50:47.440Z,1.96
2023-03-11T08:53:24.279Z,1.96
2023-03-11T08:55:55.277Z,1.93
2023-03-11T08:58:25.692Z,1.94
2023-03-11T09:00:56.269Z,1.98
2023-03-11T09:03:27.570Z,1.99
2023-03-11T09:06:01.911Z,1.98
2023-03-11T09:08:32.934Z,1.96
2023-03-11T09:11:03.792Z,1.95
2023-03-11T09:13:34.225Z,1.94
2023-03-11T09:16:06.035Z,1.96
2023-03-11T09:18:36.542Z,2.01
2023-03-11T09:21:07.743Z,2.06
2023-03-11T09:23:38.393Z,2.09
2023-03-11T09:26:09.105Z,2.13
2023-03-11T09:28:39.638Z,2.15
2023-03-11T09:31:10.334Z,2.16
2023-03-11T09:33:42.887Z,2.16
2023-03-11T09:36:17.280Z,2.19
2023-03-11T09:38:48.228Z,2.30
2023-03-11T09:41:29.600Z,2.34
2023-03-11T09:44:12.413Z,2.31
2023-03-11T09:51:08.365Z,2.28
2023-03-11T09:58:01.478Z,2.15
2023-03-11T10:00:33.015Z,2.16
2023-03-11T10:03:07.867Z,2.23
2023-03-11T10:05:39.504Z,2.24
2023-03-11T10:08:22.724Z,2.26
2023-03-11T10:11:00.415Z,2.29
2023-03-11T10:13:36.816Z,2.29
2023-03-11T10:16:15.629Z,2.32
2023-03-11T10:18:51.060Z,2.37
2023-03-11T10:21:32.847Z,2.40
2023-03-11T10:24:34.925Z,2.47
2023-03-11T10:27:13.526Z,2.48
2023-03-11T10:29:51.800Z,2.53
2023-03-11T10:32:30.973Z,2.63
2023-03-11T10:35:06.334Z,2.76
2023-03-11T10:37:49.476Z,2.91
2023-03-11T10:40:27.339Z,2.99
2023-03-11T10:43:02.841Z,3.01
2023-03-11T10:45:38.955Z,2.96
2023-03-11T10:48:14.177Z,2.94
2023-03-11T10:50:52.003Z,2.99
2023-03-11T10:53:22.845Z,3.00
2023-03-11T10:55:55.210Z,3.08
2023-03-11T10:58:27.034Z,3.18
2023-03-11T11:01:08.837Z,3.26
2023-03-11T11:03:44.493Z,3.39
2023-03-11T11:06:26.376Z,3.51
2023-03-11T11:09:19.807Z,3.54
2023-03-11T11:12:05.780Z,3.62
2023-03-11T11:14:50.125Z,3.61
2023-03-11T11:17:25.477Z,3.55
2023-03-11T11:19:58.167Z,3.50
2023-03-11T11:22:32.282Z,3.50
2023-03-11T11:25:02.727Z,3.42
2023-03-11T11:27:34.456Z,3.32
2023-03-11T11:30:18.888Z,3.33
2023-03-11T11:32:51.543Z,3.41
2023-03-11T11:35:23.597Z,3.54
2023-03-11T11:37:56.547Z,3.60
2023-03-11T11:40:32.710Z,3.54
2023-03-11T11:43:07.370Z,3.49
2023-03-11T11:45:41.650Z,3.51
2023-03-11T11:48:19.288Z,3.56
2023-03-11T11:50:55.840Z,3.63
2023-03-11T11:53:38.222Z,3.74
2023-03-11T11:56:08.858Z,3.80
2023-03-11T11:58:41.492Z,3.83
2023-03-11T12:01:19.885Z,3.85
2023-03-11T12:04:26.324Z,3.85
2023-03-11T12:07:11.696Z,3.90
2023-03-11T12:09:53.370Z,3.95
2023-03-11T12:12:33.959Z,3.96
2023-03-11T12:15:14.311Z,3.97
2023-03-11T12:17:48.662Z,4.03
2023-03-11T12:20:27.885Z,4.16
2023-03-11T12:23:21.639Z,4.24
2023-03-11T12:26:07.022Z,4.34
2023-03-11T12:28:46.678Z,4.42
2023-03-11T12:31:17.513Z,4.45
2023-03-11T12:33:51.263Z,4.46
2023-03-11T12:36:30.019Z,4.45
2023-03-11T12:38:59.438Z,4.43
2023-03-11T12:41:33.683Z,4.43
2023-03-11T12:44:22.587Z,4.47
2023-03-11T12:47:23.560Z,4.49
2023-03-11T12:49:56.214Z,4.48
2023-03-11T12:52:31.278Z,4.47
2023-03-11T12:55:38.748Z,4.42
2023-03-11T12:58:35.705Z,4.21
2023-03-11T13:01:19.611Z,3.84
2023-03-11T13:04:03.705Z,3.60
2023-03-11T13:07:00.584Z,3.46
2023-03-11T13:09:31.689Z,3.55
2023-03-11T13:12:02.426Z,3.60
2023-03-11T13:14:34.482Z,3.62
2023-03-11T13:17:26.726Z,3.74
2023-03-11T13:19:58.434Z,3.86
2023-03-11T13:23:21.151Z,3.97
2023-03-11T13:26:20.133Z,4.13
2023-03-11T13:29:05.528Z,4.13
2023-03-11T13:31:50.945Z,4.14
2023-03-11T13:34:30.434Z,4.13
2023-03-11T13:37:20.754Z,4.00
2023-03-11T13:40:04.061Z,3.85
2023-03-11T13:42:38.038Z,3.85
2023-03-11T13:45:17.310Z,3.95
2023-03-11T13:47:49.835Z,4.09
2023-03-11T13:50:27.789Z,4.43
2023-03-11T13:53:00.672Z,4.70
2023-03-11T14:03:47.861Z,4.23
2023-03-11T14:06:20.782Z,4.17
2023-03-11T14:08:57.886Z,4.09
2023-03-11T14:11:30.218Z,3.98
2023-03-11T14:14:01.982Z,3.92
2023-03-11T14:16:43.926Z,3.91
2023-03-11T14:19:19.136Z,3.90
2023-03-11T14:21:51.691Z,3.86
2023-03-11T14:24:26.230Z,3.80
2023-03-11T14:26:59.065Z,3.71
2023-03-11T14:29:33.914Z,3.66
2023-03-11T14:32:25.010Z,3.60
2023-03-11T14:34:55.844Z,3.56
2023-03-11T14:37:34.454Z,3.55
2023-03-11T14:40:06.137Z,3.54
2023-03-11T14:42:39.358Z,3.51
2023-03-11T14:45:16.818Z,3.46
2023-03-11T14:47:52.148Z,3.37
2023-03-11T14:50:25.925Z,3.29
2023-03-11T14:53:04.344Z,3.27
2023-03-11T14:55:40.504Z,3.25
2023-03-11T14:58:16.689Z,3.24
2023-03-11T15:00:51.471Z,3.27
2023-03-11T15:03:26.900Z,3.33
2023-03-11T15:05:59.865Z,3.35
2023-03-11T15:08:35.378Z,3.39
2023-03-11T15:11:19.841Z,3.43
2023-03-11T15:13:51.718Z,3.44
2023-03-11T15:16:31.552Z,3.48
2023-03-11T15:19:24.738Z,3.53
2023-03-11T15:21:58.548Z,3.55
2023-03-11T15:24:31.022Z,3.73
2023-03-11T15:27:02.578Z,3.94
2023-03-11T15:29:34.574Z,4.03
2023-03-11T15:32:38.601Z,3.97
2023-03-11T15:35:15.935Z,3.86
2023-03-11T15:37:48.507Z,3.79
2023-03-11T15:40:42.429Z,3.73
2023-03-11T15:43:28.033Z,3.70
2023-03-11T15:46:01.019Z,3.66
2023-03-11T15:48:31.810Z,3.60
2023-03-11T15:51:03.156Z,3.54
2023-03-11T15:53:33.880Z,3.48
2023-03-11T15:56:13.375Z,3.42
2023-03-11T15:58:43.980Z,3.35
2023-03-11T16:01:14.434Z,3.30
2023-03-11T16:03:45.307Z,3.30
2023-03-11T16:06:15.912Z,3.36
2023-03-11T16:08:46.587Z,3.41
2023-03-11T16:15:38.933Z,3.34
2023-03-11T16:18:10.947Z,3.32
2023-03-11T16:20:43.913Z,3.31
2023-03-11T16:23:19.517Z,3.30
2023-03-11T16:25:50.616Z,3.28
2023-03-11T16:28:21.120Z,3.26
2023-03-11T16:30:52.716Z,3.24
2023-03-11T16:33:23.257Z,3.23
2023-03-11T16:35:53.979Z,3.21
2023-03-11T16:38:24.995Z,3.18
2023-03-11T16:41:00.544Z,3.17
2023-03-11T16:43:32.925Z,3.15
2023-03-11T16:46:03.388Z,3.10
2023-03-11T16:48:34.285Z,3.07
2023-03-11T16:51:05.105Z,3.04
2023-03-11T16:53:35.527Z,3.01
2023-03-11T16:56:08.004Z,2.99
2023-03-11T16:58:37.356Z,2.99
2023-03-11T17:01:08.056Z,2.98
2023-03-11T17:03:42.888Z,2.98
2023-03-11T17:06:13.624Z,2.96
2023-03-11T17:08:49.182Z,2.96
2023-03-11T17:11:22.557Z,2.96
2023-03-11T17:13:55.381Z,2.95
2023-03-11T17:20:44.612Z,2.92
2023-03-11T17:23:15.012Z,2.92
2023-03-11T17:25:45.488Z,2.93
2023-03-11T17:28:16.016Z,2.97
2023-03-11T17:30:47.097Z,2.96
2023-03-11T17:33:17.633Z,2.91
2023-03-11T17:35:48.276Z,2.85
2023-03-11T17:38:18.822Z,2.80
2023-03-11T17:40:49.238Z,2.73
2023-03-11T17:43:19.699Z,2.69
2023-03-11T17:45:50.426Z,2.69
2023-03-11T17:48:21.399Z,2.72
2023-03-11T17:50:51.850Z,2.73
2023-03-11T17:53:22.462Z,2.74
2023-03-11T17:55:52.853Z,2.74
2023-03-11T17:58:23.265Z,2.76
2023-03-11T18:00:53.704Z,2.77
2023-03-11T18:07:39.425Z,2.67
2023-03-11T18:10:13.889Z,2.65
2023-03-11T18:12:47.917Z,2.64
2023-03-11T18:15:19.872Z,2.61
2023-03-11T18:17:50.941Z,2.53
2023-03-11T18:20:21.929Z,2.40
2023-03-11T18:22:52.997Z,2.35
2023-03-11T18:25:23.448Z,2.32
2023-03-11T18:27:54.036Z,2.28
2023-03-11T18:30:24.880Z,2.27
2023-03-11T18:32:55.407Z,2.26
2023-03-11T18:35:26.035Z,2.26
2023-03-11T18:37:56.562Z,2.27
2023-03-11T18:40:27.930Z,2.26
2023-03-11T18:42:58.541Z,2.27
2023-03-11T18:45:28.971Z,2.29
2023-03-11T18:47:59.483Z,2.28
2023-03-11T18:50:31.107Z,2.21
2023-03-11T18:53:01.772Z,2.16
2023-03-11T18:55:34.968Z,2.10
2023-03-11T18:58:09.381Z,2.06
2023-03-11T19:00:40.055Z,2.03
2023-03-11T19:03:13.451Z,1.98
2023-03-11T19:05:50.700Z,1.96
2023-03-11T19:08:21.382Z,1.91
2023-03-11T19:10:52.194Z,1.91
2023-03-11T19:13:22.621Z,1.97
2023-03-11T19:15:53.560Z,2.01
2023-03-11T19:18:25.431Z,2.03
2023-03-11T19:21:01.069Z,2.02
2023-03-11T19:23:32.735Z,2.01
2023-03-11T19:26:03.812Z,1.96
2023-03-11T19:28:34.705Z,1.95
2023-03-11T19:31:06.209Z,1.92
2023-03-11T19:33:36.902Z,1.87
2023-03-11T19:36:09.906Z,1.85
2023-03-11T19:38:40.462Z,1.79
2023-03-11T19:41:14.447Z,1.77
2023-03-11T19:43:45.363Z,1.74
2023-03-11T19:46:18.266Z,1.70
2023-03-11T19:48:49.103Z,1.65
2023-03-11T19:51:19.682Z,1.62
2023-03-11T19:53:50.152Z,1.58
2023-03-11T19:56:20.797Z,1.52
2023-03-11T19:58:52.241Z,1.54
2023-03-11T20:01:25.341Z,1.59
2023-03-11T20:03:55.751Z,1.62
2023-03-11T20:06:26.343Z,1.69
2023-03-11T20:08:57.244Z,1.75
2023-03-11T20:11:27.822Z,1.72
2023-03-11T20:13:58.542Z,1.68
2023-03-11T20:16:29.116Z,1.66
2023-03-11T20:18:59.737Z,1.65
2023-03-11T20:21:30.579Z,1.64
2023-03-11T20:24:01.449Z,1.64
2023-03-11T20:26:31.965Z,1.62
2023-03-11T20:29:02.455Z,1.62
2023-03-11T20:31:33.386Z,1.61
2023-03-11T20:34:04.060Z,1.59
2023-03-11T20:36:35.325Z,1.56
2023-03-11T20:39:09.980Z,1.46
2023-03-11T20:41:42.446Z,1.36
2023-03-11T20:44:15.076Z,1.32
2023-03-11T20:46:45.861Z,1.25
2023-03-11T20:49:16.504Z,1.22
2023-03-11T20:51:48.188Z,1.17
2023-03-11T20:54:19.082Z,1.13
2023-03-11T20:56:51.004Z,1.10
2023-03-11T20:59:21.602Z,1.08
2023-03-11T21:01:52.206Z,1.06
2023-03-11T21:04:24.459Z,1.12
2023-03-11T21:06:55.511Z,1.20
2023-03-11T21:09:26.272Z,1.25
2023-03-11T21:11:57.086Z,1.26
2023-03-11T21:14:27.731Z,1.25
2023-03-11T21:16:58.422Z,1.26
2023-03-11T21:19:29.226Z,1.25
2023-03-11T21:22:00.163Z,1.25
2023-03-11T21:24:30.802Z,1.24
2023-03-11T21:27:01.319Z,1.25
2023-03-11T21:29:31.854Z,1.22
2023-03-11T21:32:02.465Z,1.19
2023-03-11T21:34:33.115Z,1.19
2023-03-11T21:37:03.860Z,1.17
2023-03-11T21:39:34.377Z,1.13
2023-03-11T21:42:05.292Z,1.09
2023-03-11T21:44:35.858Z,1.10
2023-03-11T21:47:06.785Z,1.12
2023-03-11T21:49:38.786Z,1.12
2023-03-11T21:52:09.638Z,1.14
2023-03-11T21:54:40.108Z,1.13
2023-03-11T21:57:11.518Z,1.13
2023-03-11T21:59:42.162Z,1.14
2023-03-11T22:02:17.021Z,1.14
2023-03-11T22:04:48.560Z,1.15
2023-03-11T22:07:19.328Z,1.14
2023-03-11T22:09:51.945Z,1.13
2023-03-11T22:12:22.486Z,1.12
2023-03-11T22:14:53.033Z,1.12
2023-03-11T22:21:36.626Z,1.26
2023-03-11T22:24:08.230Z,1.29
2023-03-11T22:26:38.682Z,1.35
2023-03-11T22:37:57.473Z,1.50
2023-03-11T22:40:28.789Z,1.50
2023-03-11T22:42:59.217Z,1.51
2023-03-11T22:45:29.743Z,1.51
2023-03-11T22:48:00.993Z,1.51
2023-03-11T22:50:33.271Z,1.49
2023-03-11T22:53:03.710Z,1.49
2023-03-11T22:59:47.413Z,1.64
2023-03-11T23:06:38.613Z,1.60
2023-03-11T23:09:09.253Z,1.60
2023-03-11T23:11:39.678Z,1.61
2023-03-11T23:14:10.123Z,1.58
2023-03-11T23:21:14.358Z,1.42
2023-03-11T23:23:44.808Z,1.42
2023-03-11T23:26:16.201Z,1.38
2023-03-11T23:28:47.893Z,1.36
2023-03-11T23:31:19.413Z,1.35
2023-03-11T23:38:11.123Z,1.55
2023-03-11T23:40:43.744Z,1.64
2023-03-11T23:43:12.657Z,1.71
2023-03-11T23:45:45.331Z,1.78
2023-03-11T23:48:16.049Z,1.87
2023-03-11T23:50:49.167Z,1.95
2023-03-11T23:53:23.178Z,1.99
2023-03-11T23:55:53.746Z,2.01
2023-03-11T23:58:24.638Z,2.04
